Welcome to Northern Hawkes Bay. New Zealand.
PWS Header
      nz Flag



Hit Counter


W3C Valid W3C Valid logo


    Wairoa

Select any of the Stations below to visit their websites.










Historic Data from Weather Underground
Select the location of interest below. Wairoa is the default. Please have patience, this Data is slow to load in.
Northern Hawkes Bay Historical Data
Daily Summary for October 8, 2017 Units:  Metric    English   Both
« Previous Day
Next Day »
Daily Weekly Monthly Yearly Custom
  High: Low: Average:
Temperature: 16.8 °C 12.6 °C 14 °C
Dew Point: 14.4 °C 11.4 °C 12.4 °C
Humidity: 98% 82% 90%
Wind Speed: 12.2km/h 0.0km/h 3.2km/h
Wind Gust: 19.5km/h - -
Wind- - ENE
Pressure: 1018.2 hPa 1015.1 hPa -
Precipitation: 4.8 mm    
Historical Graphs
 
 
Tabular Data for October 8, 2017
Time Temperature Dew Point Pressure Wind Wind Speed Wind Gust Humidity Rainfall Rate (Hourly) solar
00:04 14.4 °C 11.9 °C 1018.2 hPa Calm   6.1 km/h 85% 0.0 mm 0 W/m2
00:09 14.3 °C 11.8 °C 1018.2 hPa Calm   6.1 km/h 85% 0.0 mm 0 W/m2
00:14 14.2 °C 11.7 °C 1018.2 hPa Calm   6.1 km/h 85% 0.0 mm 0 W/m2
00:19 14.1 °C 11.8 °C 1018.2 hPa NNW 1.1 km/h 6.1 km/h 86% 0.0 mm 0 W/m2
00:24 14.0 °C 11.7 °C 1018.2 hPa Calm   5.0 km/h 86% 0.0 mm 0 W/m2
00:29 14.0 °C 11.9 °C 1018.2 hPa North 1.1 km/h 5.0 km/h 87% 0.0 mm 0 W/m2
00:34 13.9 °C 11.9 °C 1018.2 hPa North 2.6 km/h 5.0 km/h 88% 0.0 mm 0 W/m2
00:39 13.8 °C 11.8 °C 1018.2 hPa NNE 2.6 km/h 5.0 km/h 88% 0.0 mm 0 W/m2
00:44 13.8 °C 12.0 °C 1018.2 hPa Calm   5.0 km/h 89% 0.0 mm 0 W/m2
00:49 13.8 °C 12.0 °C 1018.2 hPa Calm   5.0 km/h 89% 0.0 mm 0 W/m2
00:54 13.6 °C 11.8 °C 1017.8 hPa Calm   2.6 km/h 89% 0.0 mm 0 W/m2
00:59 13.6 °C 12.0 °C 1018.2 hPa Calm   2.6 km/h 90% 0.0 mm 0 W/m2
01:04 13.5 °C 11.9 °C 1018.2 hPa Calm   1.1 km/h 90% 0.0 mm 0 W/m2
01:14 13.4 °C 11.9 °C 1018.2 hPa Calm     91% 0.0 mm 0 W/m2
01:19 13.3 °C 12.1 °C 1018.2 hPa Calm     92% 0.0 mm 0 W/m2
01:24 13.2 °C 12.1 °C 1018.2 hPa Calm     93% 0.0 mm 0 W/m2
01:29 13.1 °C 12.2 °C 1018.2 hPa West 1.1 km/h 2.6 km/h 94% 0.0 mm 0 W/m2
01:34 13.0 °C 12.2 °C 1017.8 hPa Calm   3.5 km/h 95% 0.0 mm 0 W/m2
01:44 12.9 °C 12.3 °C 1017.8 hPa Calm   3.5 km/h 96% 0.0 mm 0 W/m2
01:54 12.9 °C 12.3 °C 1017.8 hPa Calm     96% 0.0 mm 0 W/m2
01:59 12.9 °C 12.3 °C 1017.8 hPa Calm     96% 0.0 mm 0 W/m2
02:04 12.9 °C 12.3 °C 1017.5 hPa Calm     96% 0.0 mm 0 W/m2
02:09 12.9 °C 12.3 °C 1017.5 hPa Calm   1.1 km/h 96% 0.0 mm 0 W/m2
02:14 13.0 °C 12.4 °C 1017.5 hPa Calm   2.6 km/h 96% 0.0 mm 0 W/m2
02:19 13.1 °C 12.5 °C 1017.2 hPa NNE 2.6 km/h 6.1 km/h 96% 0.0 mm 0 W/m2
02:24 13.3 °C 12.5 °C 1017.2 hPa NE 3.5 km/h 9.7 km/h 95% 0.0 mm 0 W/m2
02:35 13.5 °C 12.4 °C 1017.2 hPa Calm   6.1 km/h 93% 0.0 mm 0 W/m2
02:40 13.4 °C 12.3 °C 1017.2 hPa Calm   3.5 km/h 93% 0.0 mm 0 W/m2
02:45 13.3 °C 12.2 °C 1017.2 hPa Calm     93% 0.0 mm 0 W/m2
02:50 13.2 °C 12.1 °C 1017.2 hPa Calm     93% 0.0 mm 0 W/m2
02:55 13.0 °C 12.1 °C 1016.8 hPa Calm     94% 0.0 mm 0 W/m2
03:06 12.8 °C 12.0 °C 1016.8 hPa Calm     95% 0.0 mm 0 W/m2
03:11 12.8 °C 12.0 °C 1016.8 hPa Calm     95% 0.0 mm 0 W/m2
03:16 12.8 °C 12.0 °C 1016.8 hPa Calm     95% 0.0 mm 0 W/m2
03:21 12.7 °C 11.9 °C 1016.8 hPa Calm     95% 0.0 mm 0 W/m2
03:26 12.7 °C 12.1 °C 1016.8 hPa Calm     96% 0.0 mm 0 W/m2
03:46 12.7 °C 12.2 °C 1016.5 hPa Calm     97% 0.3 mm 0 W/m2
03:51 12.7 °C 12.2 °C 1016.5 hPa Calm     97% 0.3 mm 0 W/m2
03:56 12.6 °C 12.2 °C 1016.5 hPa NE 1.1 km/h 2.6 km/h 97% 0.3 mm 0 W/m2
04:01 12.6 °C 12.2 °C 1016.5 hPa Calm   3.5 km/h 97% 0.3 mm 0 W/m2
04:06 12.7 °C 12.2 °C 1016.5 hPa Calm   5.0 km/h 97% 0.3 mm 0 W/m2
04:11 12.8 °C 12.3 °C 1016.5 hPa NE 1.1 km/h 5.0 km/h 97% 0.3 mm 0 W/m2
04:16 12.8 °C 12.3 °C 1016.5 hPa Calm   3.5 km/h 97% 0.3 mm 0 W/m2
04:21 12.8 °C 12.3 °C 1016.5 hPa Calm   3.5 km/h 97% 0.3 mm 0 W/m2
04:26 12.8 °C 12.3 °C 1016.8 hPa NE 1.1 km/h 3.5 km/h 97% 0.3 mm 0 W/m2
04:31 12.8 °C 12.3 °C 1016.8 hPa NE 1.1 km/h 3.5 km/h 97% 0.0 mm 0 W/m2
04:36 12.8 °C 12.3 °C 1016.8 hPa NNE 3.5 km/h 5.0 km/h 97% 0.0 mm 0 W/m2
04:41 12.8 °C 12.3 °C 1016.5 hPa North 1.1 km/h 5.0 km/h 97% 0.0 mm 0 W/m2
04:46 12.7 °C 12.2 °C 1016.1 hPa NNE 3.5 km/h 5.0 km/h 97% 0.0 mm 0 W/m2
04:51 12.7 °C 12.2 °C 1016.1 hPa NE 5.0 km/h 6.1 km/h 97% 0.0 mm 0 W/m2
04:57 12.7 °C 12.2 °C 1016.1 hPa NE 1.1 km/h 6.1 km/h 97% 0.0 mm 0 W/m2
05:03 12.7 °C 12.2 °C 1016.5 hPa NE 2.6 km/h 6.1 km/h 97% 0.0 mm 0 W/m2
05:08 12.8 °C 12.3 °C 1016.1 hPa NE 2.6 km/h 6.1 km/h 97% 0.0 mm 0 W/m2
05:13 12.9 °C 12.4 °C 1016.1 hPa ENE 3.5 km/h 6.1 km/h 97% 0.0 mm 0 W/m2
05:18 13.1 °C 12.7 °C 1015.8 hPa East 8.7 km/h 12.2 km/h 97% 0.3 mm 0 W/m2
05:23 13.3 °C 12.5 °C 1016.1 hPa East 6.1 km/h 14.8 km/h 95% 0.3 mm 0 W/m2
05:28 13.4 °C 12.3 °C 1015.8 hPa East 6.1 km/h 14.8 km/h 93% 0.3 mm 0 W/m2
05:33 13.5 °C 12.2 °C 1016.1 hPa East 3.5 km/h 11.1 km/h 92% 0.3 mm 0 W/m2
05:38 13.5 °C 12.2 °C 1016.1 hPa ENE 2.6 km/h 11.1 km/h 92% 0.3 mm 0 W/m2
05:43 13.3 °C 12.1 °C 1016.1 hPa Calm   11.1 km/h 92% 0.3 mm 0 W/m2
05:48 13.2 °C 11.9 °C 1016.1 hPa East 5.0 km/h 9.7 km/h 92% 0.3 mm 0 W/m2
05:53 13.3 °C 12.1 °C 1016.1 hPa ESE 2.6 km/h 9.7 km/h 92% 0.3 mm 0 W/m2
05:58 13.4 °C 12.1 °C 1016.1 hPa ESE 5.0 km/h 9.7 km/h 92% 0.3 mm 0 W/m2
06:03 13.5 °C 12.1 °C 1015.8 hPa East 7.2 km/h 12.2 km/h 91% 0.3 mm 0 W/m2
06:08 13.5 °C 12.1 °C 1015.8 hPa East 7.2 km/h 14.8 km/h 91% 0.3 mm 0 W/m2
06:13 13.5 °C 11.9 °C 1015.8 hPa East 7.2 km/h 14.8 km/h 90% 0.3 mm 0 W/m2
06:18 13.5 °C 11.9 °C 1015.8 hPa ESE 6.1 km/h 13.4 km/h 90% 0.0 mm 0 W/m2
06:23 13.5 °C 11.9 °C 1015.8 hPa ESE 6.1 km/h 13.4 km/h 90% 0.0 mm 0 W/m2
06:28 13.6 °C 12.0 °C 1016.1 hPa East 9.7 km/h 12.2 km/h 90% 0.0 mm 0 W/m2
06:33 13.8 °C 12.0 °C 1015.8 hPa East 1.1 km/h 12.2 km/h 89% 0.0 mm 0 W/m2
06:38 13.5 °C 11.7 °C 1016.1 hPa East 1.1 km/h 12.2 km/h 89% 0.0 mm 0 W/m2
06:43 13.5 °C 11.9 °C 1016.1 hPa East 2.6 km/h 6.1 km/h 90% 0.0 mm 0 W/m2
06:48 13.5 °C 11.9 °C 1016.5 hPa East 2.6 km/h 8.7 km/h 90% 0.0 mm 0 W/m2
07:07 13.0 °C 12.1 °C 1016.5 hPa NE 5.0 km/h 7.2 km/h 94% 0.3 mm 0 W/m2
07:12 12.9 °C 12.1 °C 1016.5 hPa ENE 6.1 km/h 9.7 km/h 95% 0.3 mm 1 W/m2
07:17 12.9 °C 12.4 °C 1016.5 hPa ENE 2.6 km/h 9.7 km/h 97% 0.5 mm 2 W/m2
07:22 12.9 °C 12.4 °C 1016.5 hPa East 3.5 km/h 9.7 km/h 97% 0.5 mm 4 W/m2
07:27 12.9 °C 12.4 °C 1016.8 hPa ENE 2.6 km/h 6.1 km/h 97% 0.5 mm 6 W/m2
07:32 12.8 °C 12.3 °C 1016.8 hPa ENE 3.5 km/h 9.7 km/h 97% 0.5 mm 4 W/m2
07:37 12.9 °C 12.4 °C 1016.8 hPa East 3.5 km/h 11.1 km/h 97% 0.5 mm 5 W/m2
07:42 12.9 °C 12.4 °C 1016.8 hPa ENE 3.5 km/h 11.1 km/h 97% 0.5 mm 7 W/m2
07:52 12.8 °C 12.3 °C 1017.2 hPa ENE 3.5 km/h 9.7 km/h 97% 0.5 mm 19 W/m2
07:57 12.8 °C 12.3 °C 1016.8 hPa ENE 5.0 km/h 9.7 km/h 97% 0.5 mm 20 W/m2
08:02 12.8 °C 12.3 °C 1016.8 hPa East 3.5 km/h 8.7 km/h 97% 1.0 mm 18 W/m2
08:07 12.7 °C 12.2 °C 1016.8 hPa ENE 5.0 km/h 8.7 km/h 97% 1.0 mm 20 W/m2
08:12 12.7 °C 12.2 °C 1016.8 hPa ENE 3.5 km/h 9.7 km/h 97% 1.0 mm 26 W/m2
08:17 12.7 °C 12.2 °C 1016.8 hPa ENE 5.0 km/h 11.1 km/h 97% 0.5 mm 27 W/m2
08:22 12.7 °C 12.2 °C 1016.8 hPa East 8.7 km/h 12.2 km/h 97% 0.5 mm 31 W/m2
08:27 12.7 °C 12.2 °C 1016.8 hPa ENE 6.1 km/h 12.2 km/h 97% 0.5 mm 33 W/m2
08:32 12.9 °C 12.3 °C 1016.8 hPa ENE 7.2 km/h 14.8 km/h 96% 0.5 mm 32 W/m2
08:37 12.9 °C 12.1 °C 1016.8 hPa ENE 12.2 km/h 17.2 km/h 95% 0.5 mm 39 W/m2
08:42 13.0 °C 12.2 °C 1016.8 hPa ENE 7.2 km/h 17.2 km/h 95% 0.5 mm 41 W/m2
08:47 13.0 °C 12.1 °C 1016.8 hPa ENE 5.0 km/h 17.2 km/h 94% 0.5 mm 44 W/m2
08:52 13.0 °C 12.1 °C 1016.8 hPa ENE 2.6 km/h 15.8 km/h 94% 0.5 mm 34 W/m2
08:57 13.0 °C 12.1 °C 1016.8 hPa ENE 5.0 km/h 12.2 km/h 94% 0.5 mm 39 W/m2
09:02 13.1 °C 12.2 °C 1016.8 hPa NE 3.5 km/h 11.1 km/h 94% 0.3 mm 47 W/m2
09:12 13.4 °C 11.8 °C 1016.8 hPa NE 5.0 km/h 18.3 km/h 90% 0.3 mm 51 W/m2
09:17 13.4 °C 11.6 °C 1016.8 hPa NE 3.5 km/h 18.3 km/h 89% 0.3 mm 51 W/m2
09:22 13.5 °C 11.7 °C 1016.8 hPa NE 7.2 km/h 14.8 km/h 89% 0.3 mm 57 W/m2
09:27 13.5 °C 11.7 °C 1016.8 hPa NE 3.5 km/h 14.8 km/h 89% 0.3 mm 69 W/m2
09:32 13.5 °C 11.7 °C 1016.8 hPa NE 6.1 km/h 11.1 km/h 89% 0.3 mm 95 W/m2
09:37 13.8 °C 12.0 °C 1016.8 hPa NE 3.5 km/h 19.5 km/h 89% 0.3 mm 140 W/m2
09:42 14.1 °C 12.0 °C 1016.8 hPa NE 5.0 km/h 19.5 km/h 87% 0.3 mm 100 W/m2
09:47 14.1 °C 11.8 °C 1017.2 hPa NE 7.2 km/h 13.4 km/h 86% 0.3 mm 100 W/m2
09:52 14.2 °C 11.9 °C 1017.2 hPa NNE 1.1 km/h 11.1 km/h 86% 0.3 mm 98 W/m2
09:57 14.2 °C 11.9 °C 1017.2 hPa North 2.6 km/h 9.7 km/h 86% 0.3 mm 93 W/m2
10:02 14.3 °C 11.8 °C 1017.2 hPa North 5.0 km/h 11.1 km/h 85% 0.3 mm 121 W/m2
10:07 14.3 °C 11.8 °C 1017.2 hPa NNE 5.0 km/h 13.4 km/h 85% 0.0 mm 124 W/m2
10:12 14.3 °C 11.8 °C 1017.2 hPa NNE 8.7 km/h 14.8 km/h 85% 0.0 mm 120 W/m2
10:17 14.3 °C 11.6 °C 1017.2 hPa NNE 6.1 km/h 18.3 km/h 84% 0.0 mm 124 W/m2
10:22 14.4 °C 11.7 °C 1017.2 hPa NNE 6.1 km/h 19.5 km/h 84% 0.0 mm 125 W/m2
10:27 14.4 °C 11.6 °C 1017.2 hPa NNE 7.2 km/h 19.5 km/h 83% 0.0 mm 120 W/m2
10:32 14.5 °C 11.4 °C 1017.2 hPa NNE 5.0 km/h 19.5 km/h 82% 0.0 mm 123 W/m2
10:42 14.5 °C 11.7 °C 1017.5 hPa NE 7.2 km/h 17.2 km/h 83% 0.0 mm 91 W/m2
10:47 14.5 °C 11.4 °C 1017.5 hPa NNE 3.5 km/h 12.2 km/h 82% 0.0 mm 73 W/m2
10:52 14.4 °C 11.4 °C 1017.5 hPa NE 3.5 km/h 12.2 km/h 82% 0.0 mm 62 W/m2
10:57 14.3 °C 11.4 °C 1017.5 hPa NNE 5.0 km/h 12.2 km/h 83% 0.0 mm 81 W/m2
11:02 14.3 °C 11.6 °C 1017.5 hPa NNE 1.1 km/h 12.2 km/h 84% 0.0 mm 65 W/m2
11:07 14.2 °C 11.6 °C 1017.2 hPa NNE 2.6 km/h 6.1 km/h 84% 0.0 mm 55 W/m2
11:12 14.1 °C 11.6 °C 1017.5 hPa NNE 1.1 km/h 6.1 km/h 85% 0.3 mm 60 W/m2
11:17 14.0 °C 11.7 °C 1017.2 hPa NNE 1.1 km/h 5.0 km/h 86% 0.3 mm 61 W/m2
11:22 13.8 °C 11.8 °C 1017.2 hPa Calm   5.0 km/h 88% 0.3 mm 56 W/m2
11:27 13.6 °C 11.8 °C 1016.8 hPa Calm   3.5 km/h 89% 0.3 mm 66 W/m2
11:32 13.8 °C 12.2 °C 1017.2 hPa ENE 2.6 km/h 3.5 km/h 90% 0.3 mm 105 W/m2
11:37 13.8 °C 12.6 °C 1017.2 hPa East 2.6 km/h 6.1 km/h 92% 0.5 mm 108 W/m2
11:42 13.8 °C 12.7 °C 1016.8 hPa Calm   6.1 km/h 93% 0.5 mm 81 W/m2
11:47 13.6 °C 12.5 °C 1016.8 hPa East 1.1 km/h 6.1 km/h 93% 1.0 mm 76 W/m2
11:52 13.6 °C 12.5 °C 1016.8 hPa ENE 6.1 km/h 7.2 km/h 93% 1.0 mm 61 W/m2
11:57 13.6 °C 12.5 °C 1016.8 hPa ENE 1.1 km/h 7.2 km/h 93% 1.0 mm 51 W/m2
12:02 13.6 °C 12.7 °C 1016.8 hPa ENE 5.0 km/h 7.2 km/h 94% 1.0 mm 49 W/m2
12:07 13.5 °C 12.6 °C 1016.8 hPa ENE 2.6 km/h 7.2 km/h 94% 1.0 mm 50 W/m2
12:12 13.4 °C 12.6 °C 1016.8 hPa ENE 1.1 km/h 8.7 km/h 95% 0.5 mm 53 W/m2
12:17 13.4 °C 12.6 °C 1016.8 hPa ENE 2.6 km/h 8.7 km/h 95% 0.5 mm 57 W/m2
12:22 13.5 °C 12.7 °C 1016.8 hPa NE 1.1 km/h 8.7 km/h 95% 0.5 mm 72 W/m2
12:27 13.5 °C 12.7 °C 1016.8 hPa NE 3.5 km/h 6.1 km/h 95% 1.0 mm 74 W/m2
12:32 13.5 °C 12.9 °C 1016.8 hPa NE 5.0 km/h 7.2 km/h 96% 1.3 mm 84 W/m2
12:37 13.5 °C 12.9 °C 1016.8 hPa NE 2.6 km/h 7.2 km/h 96% 1.0 mm 86 W/m2
12:42 13.6 °C 13.1 °C 1016.8 hPa ENE 6.1 km/h 8.7 km/h 97% 1.0 mm 83 W/m2
12:47 13.6 °C 13.1 °C 1016.5 hPa ENE 5.0 km/h 8.7 km/h 97% 0.5 mm 83 W/m2
12:52 13.6 °C 13.1 °C 1016.5 hPa East 6.1 km/h 8.7 km/h 97% 0.5 mm 71 W/m2
12:57 13.5 °C 12.9 °C 1016.5 hPa East 3.5 km/h 9.7 km/h 96% 0.5 mm 56 W/m2
13:02 13.5 °C 12.9 °C 1016.8 hPa East 5.0 km/h 9.7 km/h 96% 0.5 mm 47 W/m2
13:07 13.5 °C 12.9 °C 1016.8 hPa East 7.2 km/h 9.7 km/h 96% 0.5 mm 48 W/m2
13:12 13.6 °C 13.0 °C 1016.5 hPa East 2.6 km/h 9.7 km/h 96% 0.5 mm 50 W/m2
13:17 13.6 °C 13.0 °C 1016.5 hPa ENE 3.5 km/h 9.7 km/h 96% 0.5 mm 54 W/m2
13:22 13.6 °C 13.0 °C 1016.5 hPa ENE 5.0 km/h 7.2 km/h 96% 0.5 mm 59 W/m2
13:27 13.6 °C 13.0 °C 1016.5 hPa ENE 5.0 km/h 8.7 km/h 96% 1.0 mm 78 W/m2
13:32 13.6 °C 13.1 °C 1016.5 hPa East 3.5 km/h 8.7 km/h 97% 0.5 mm 86 W/m2
13:37 13.6 °C 13.1 °C 1016.5 hPa East 2.6 km/h 9.7 km/h 97% 0.5 mm 92 W/m2
13:42 13.7 °C 13.4 °C 1016.5 hPa East 3.5 km/h 9.7 km/h 98% 0.5 mm 118 W/m2
13:52 14.2 °C 13.9 °C 1016.1 hPa ENE 6.1 km/h 8.7 km/h 98% 0.5 mm 199 W/m2
13:57 14.4 °C 13.9 °C 1016.5 hPa ENE 6.1 km/h 9.7 km/h 97% 0.5 mm 228 W/m2
14:02 14.7 °C 14.1 °C 1016.5 hPa NE 5.0 km/h 14.8 km/h 96% 0.5 mm 140 W/m2
14:07 14.7 °C 13.9 °C 1016.5 hPa ENE 2.6 km/h 14.8 km/h 95% 1.0 mm 141 W/m2
14:12 14.8 °C 14.0 °C 1016.5 hPa ENE 7.2 km/h 9.7 km/h 95% 1.0 mm 145 W/m2
14:17 14.7 °C 13.8 °C 1016.5 hPa ENE 7.2 km/h 11.1 km/h 94% 1.0 mm 134 W/m2
14:22 14.6 °C 13.7 °C 1016.5 hPa ENE 5.0 km/h 11.1 km/h 94% 0.5 mm 150 W/m2
14:27 14.7 °C 13.9 °C 1016.1 hPa ENE 5.0 km/h 11.1 km/h 95% 0.3 mm 150 W/m2
14:32 14.6 °C 13.7 °C 1016.1 hPa East 6.1 km/h 11.1 km/h 94% 0.3 mm 149 W/m2
14:37 14.4 °C 13.3 °C 1016.1 hPa East 9.7 km/h 13.4 km/h 93% 0.3 mm 137 W/m2
14:42 14.4 °C 12.9 °C 1016.1 hPa East 11.1 km/h 15.8 km/h 91% 0.3 mm 127 W/m2
14:47 14.4 °C 12.8 °C 1016.1 hPa ENE 5.0 km/h 15.8 km/h 90% 0.3 mm 109 W/m2
14:52 14.4 °C 12.8 °C 1016.1 hPa ENE 11.1 km/h 15.8 km/h 90% 0.3 mm 102 W/m2
14:58 14.4 °C 12.8 °C 1016.1 hPa Calm   14.8 km/h 90% 0.3 mm 87 W/m2
15:08 14.5 °C 12.9 °C 1015.8 hPa NE 5.0 km/h 12.2 km/h 90% 0.0 mm 168 W/m2
15:13 14.9 °C 13.3 °C 1015.8 hPa ENE 7.2 km/h 11.1 km/h 90% 0.0 mm 242 W/m2
15:18 15.3 °C 13.3 °C 1016.1 hPa ENE 2.6 km/h 11.1 km/h 88% 0.3 mm 236 W/m2
15:23 15.6 °C 13.6 °C 1016.1 hPa NE 6.1 km/h 11.1 km/h 88% 0.3 mm 234 W/m2
15:28 15.6 °C 13.4 °C 1015.8 hPa NE 3.5 km/h 9.7 km/h 87% 0.3 mm 265 W/m2
15:34 16.0 °C 13.7 °C 1016.1 hPa NE 3.5 km/h 8.7 km/h 86% 0.3 mm 199 W/m2
15:44 15.9 °C 13.7 °C 1015.8 hPa East 7.2 km/h 12.2 km/h 87% 0.3 mm 278 W/m2
15:49 16.0 °C 13.7 °C 1015.8 hPa East 1.1 km/h 12.2 km/h 86% 0.3 mm 321 W/m2
15:54 16.8 °C 14.4 °C 1015.8 hPa ENE 5.0 km/h 9.7 km/h 86% 0.3 mm 294 W/m2
15:59 16.5 °C 13.4 °C 1015.8 hPa ENE 7.2 km/h 9.7 km/h 82% 0.3 mm 207 W/m2
16:04 16.2 °C 13.1 °C 1015.8 hPa East 2.6 km/h 9.7 km/h 82% 0.3 mm 218 W/m2
16:09 16.3 °C 13.2 °C 1015.8 hPa ESE 2.6 km/h 9.7 km/h 82% 0.3 mm 188 W/m2
16:14 16.2 °C 13.1 °C 1015.5 hPa ESE 2.6 km/h 7.2 km/h 82% 0.3 mm 174 W/m2
16:19 16.4 °C 13.3 °C 1015.8 hPa ESE 2.6 km/h 6.1 km/h 82% 0.0 mm 181 W/m2
16:24 16.4 °C 13.3 °C 1015.5 hPa ESE 1.1 km/h 5.0 km/h 82% 0.0 mm 165 W/m2
16:29 16.5 °C 13.4 °C 1015.5 hPa ESE 8.7 km/h 9.7 km/h 82% 0.0 mm 171 W/m2
16:34 16.4 °C 13.5 °C 1015.5 hPa ESE 2.6 km/h 9.7 km/h 83% 0.0 mm 204 W/m2
16:40 16.4 °C 13.7 °C 1015.5 hPa SE 3.5 km/h 9.7 km/h 84% 0.0 mm 173 W/m2
16:46 16.4 °C 13.9 °C 1015.5 hPa SE 3.5 km/h 9.7 km/h 85% 0.0 mm 163 W/m2
16:51 16.5 °C 13.8 °C 1015.5 hPa SE 1.1 km/h 7.2 km/h 84% 0.0 mm 178 W/m2
16:56 16.5 °C 13.8 °C 1015.5 hPa SE 2.6 km/h 7.2 km/h 84% 0.0 mm 174 W/m2
17:01 16.6 °C 13.9 °C 1015.5 hPa SE 2.6 km/h 7.2 km/h 84% 0.0 mm 168 W/m2
17:06 16.6 °C 13.9 °C 1015.5 hPa SE 3.5 km/h 8.7 km/h 84% 0.0 mm 137 W/m2
17:11 16.2 °C 13.3 °C 1015.1 hPa ESE 3.5 km/h 9.7 km/h 83% 0.0 mm 115 W/m2
17:16 16.1 °C 13.2 °C 1015.5 hPa Calm   9.7 km/h 83% 0.0 mm 95 W/m2
17:21 16.2 °C 13.5 °C 1015.5 hPa East 5.0 km/h 9.7 km/h 84% 0.0 mm 113 W/m2
17:26 16.1 °C 13.2 °C 1015.1 hPa Calm   11.1 km/h 83% 0.0 mm 96 W/m2
17:31 16.1 °C 13.2 °C 1015.5 hPa East 7.2 km/h 11.1 km/h 83% 0.0 mm 70 W/m2
17:36 16.0 °C 12.9 °C 1015.5 hPa East 6.1 km/h 11.1 km/h 82% 0.0 mm 58 W/m2
17:41 15.9 °C 13.0 °C 1015.5 hPa East 3.5 km/h 12.2 km/h 83% 0.0 mm 56 W/m2
17:46 15.8 °C 12.9 °C 1015.5 hPa East 3.5 km/h 12.2 km/h 83% 0.0 mm 42 W/m2
17:51 15.8 °C 12.9 °C 1015.1 hPa East 3.5 km/h 9.7 km/h 83% 0.0 mm 45 W/m2
17:56 15.7 °C 12.8 °C 1015.5 hPa East 5.0 km/h 8.7 km/h 83% 0.0 mm 43 W/m2
18:01 15.6 °C 12.7 °C 1015.5 hPa East 2.6 km/h 8.7 km/h 83% 0.0 mm 25 W/m2
18:06 15.5 °C 12.8 °C 1015.5 hPa ESE 3.5 km/h 7.2 km/h 84% 0.0 mm 19 W/m2
18:11 15.5 °C 12.8 °C 1015.5 hPa ESE 2.6 km/h 8.7 km/h 84% 0.0 mm 18 W/m2
18:21 15.3 °C 12.6 °C 1015.5 hPa East 9.7 km/h 15.8 km/h 84% 0.0 mm 17 W/m2
18:31 15.1 °C 12.4 °C 1015.1 hPa ENE 7.2 km/h 15.8 km/h 84% 0.0 mm 11 W/m2
18:36 15.1 °C 12.4 °C 1015.5 hPa ENE 3.5 km/h 13.4 km/h 84% 0.0 mm 11 W/m2
18:41 15.0 °C 12.3 °C 1015.5 hPa ENE 6.1 km/h 13.4 km/h 84% 0.0 mm 9 W/m2
18:46 14.9 °C 12.4 °C 1015.5 hPa ENE 5.0 km/h 12.2 km/h 85% 0.0 mm 6 W/m2
18:51 14.9 °C 12.4 °C 1015.1 hPa ENE 2.6 km/h 12.2 km/h 85% 0.0 mm 6 W/m2
18:56 14.9 °C 12.6 °C 1015.5 hPa ENE 5.0 km/h 11.1 km/h 86% 0.0 mm 6 W/m2
19:01 14.9 °C 12.4 °C 1015.5 hPa East 5.0 km/h 8.7 km/h 85% 0.0 mm 4 W/m2
19:06 14.8 °C 12.3 °C 1015.5 hPa East 6.1 km/h 11.1 km/h 85% 0.0 mm 1 W/m2
19:11 14.8 °C 12.3 °C 1015.5 hPa East 3.5 km/h 11.1 km/h 85% 0.0 mm 0 W/m2
19:16 14.8 °C 12.3 °C 1015.5 hPa Calm   9.7 km/h 85% 0.0 mm 0 W/m2
19:21 14.7 °C 12.2 °C 1015.5 hPa Calm   6.1 km/h 85% 0.0 mm 0 W/m2
19:26 14.7 °C 12.2 °C 1015.5 hPa ESE 1.1 km/h 9.7 km/h 85% 0.0 mm 0 W/m2
19:36 14.7 °C 12.2 °C 1015.8 hPa ESE 1.1 km/h 6.1 km/h 85% 0.0 mm 0 W/m2
19:41 14.7 °C 12.2 °C 1015.5 hPa East 2.6 km/h 6.1 km/h 85% 0.0 mm 0 W/m2
19:46 14.6 °C 12.1 °C 1015.5 hPa East 2.6 km/h 6.1 km/h 85% 0.0 mm 0 W/m2
19:51 14.6 °C 11.9 °C 1015.5 hPa Calm   5.0 km/h 84% 0.0 mm 0 W/m2
19:56 14.6 °C 12.1 °C 1015.5 hPa Calm   5.0 km/h 85% 0.0 mm 0 W/m2
20:01 14.5 °C 12.0 °C 1015.5 hPa East 1.1 km/h 5.0 km/h 85% 0.0 mm 0 W/m2
20:06 14.5 °C 12.0 °C 1015.5 hPa East 2.6 km/h 5.0 km/h 85% 0.0 mm 0 W/m2
20:11 14.4 °C 12.1 °C 1015.5 hPa ESE 2.6 km/h 7.2 km/h 86% 0.0 mm 0 W/m2
20:16 14.4 °C 12.1 °C 1015.5 hPa East 5.0 km/h 11.1 km/h 86% 0.0 mm 0 W/m2
20:21 14.4 °C 12.1 °C 1015.5 hPa East 3.5 km/h 12.2 km/h 86% 0.0 mm 0 W/m2
20:26 14.4 °C 12.1 °C 1015.8 hPa ESE 5.0 km/h 12.2 km/h 86% 0.0 mm 0 W/m2
20:31 14.2 °C 11.9 °C 1015.5 hPa East 2.6 km/h 11.1 km/h 86% 0.0 mm 0 W/m2
20:36 14.1 °C 12.0 °C 1015.5 hPa East 6.1 km/h 8.7 km/h 87% 0.0 mm 0 W/m2
20:41 14.0 °C 11.9 °C 1015.8 hPa ENE 2.6 km/h 11.1 km/h 87% 0.0 mm 0 W/m2
20:46 13.6 °C 11.8 °C 1015.8 hPa Calm   11.1 km/h 89% 0.0 mm 0 W/m2
20:51 13.5 °C 11.7 °C 1015.8 hPa Calm   5.0 km/h 89% 0.0 mm 0 W/m2
20:56 13.4 °C 11.8 °C 1015.5 hPa Calm   1.1 km/h 90% 0.0 mm 0 W/m2
21:01 13.2 °C 11.6 °C 1015.8 hPa East 1.1 km/h 3.5 km/h 90% 0.0 mm 0 W/m2
21:04 13.2 °C 11.8 °C 1015.5 hPa Calm   3.5 km/h 91% 0.0 mm 0 W/m2
21:09 13.2 °C 11.8 °C 1015.5 hPa Calm   3.5 km/h 91% 0.0 mm 0 W/m2
21:14 13.1 °C 11.8 °C 1015.8 hPa Calm   2.6 km/h 92% 0.0 mm 0 W/m2
21:19 13.1 °C 11.8 °C 1015.8 hPa Calm   2.6 km/h 92% 0.0 mm 0 W/m2
21:24 13.1 °C 11.8 °C 1015.8 hPa Calm   5.0 km/h 92% 0.0 mm 0 W/m2
21:29 13.1 °C 12.0 °C 1015.8 hPa ESE 1.1 km/h 5.0 km/h 93% 0.0 mm 0 W/m2
21:34 13.3 °C 12.2 °C 1015.8 hPa East 5.0 km/h 8.7 km/h 93% 0.0 mm 0 W/m2
21:39 13.6 °C 12.2 °C 1015.8 hPa East 3.5 km/h 11.1 km/h 91% 0.0 mm 0 W/m2
21:49 13.6 °C 11.8 °C 1015.5 hPa East 1.1 km/h 5.0 km/h 89% 0.0 mm 0 W/m2
21:54 13.5 °C 11.7 °C 1015.5 hPa ESE 1.1 km/h 5.0 km/h 89% 0.0 mm 0 W/m2
21:59 13.4 °C 11.6 °C 1015.5 hPa Calm   5.0 km/h 89% 0.0 mm 0 W/m2
22:04 13.3 °C 11.7 °C 1015.5 hPa Calm   5.0 km/h 90% 0.0 mm 0 W/m2
22:09 13.3 °C 11.7 °C 1015.5 hPa ENE 1.1 km/h 3.5 km/h 90% 0.0 mm 0 W/m2
22:14 13.3 °C 11.7 °C 1015.8 hPa East 2.6 km/h 8.7 km/h 90% 0.0 mm 0 W/m2
22:19 13.5 °C 11.9 °C 1015.5 hPa ESE 2.6 km/h 8.7 km/h 90% 0.0 mm 0 W/m2
22:24 13.5 °C 11.7 °C 1015.5 hPa ESE 2.6 km/h 7.2 km/h 89% 0.0 mm 0 W/m2
22:29 13.6 °C 11.8 °C 1015.5 hPa Calm   7.2 km/h 89% 0.0 mm 0 W/m2
22:34 13.6 °C 11.7 °C 1015.5 hPa East 1.1 km/h 5.0 km/h 88% 0.0 mm 0 W/m2
22:39 13.8 °C 11.8 °C 1015.5 hPa ESE 3.5 km/h 13.4 km/h 88% 0.0 mm 0 W/m2
22:44 14.0 °C 11.7 °C 1015.5 hPa East 5.0 km/h 13.4 km/h 86% 0.0 mm 0 W/m2
22:54 14.0 °C 11.7 °C 1015.5 hPa East 3.5 km/h 9.7 km/h 86% 0.0 mm 0 W/m2
22:59 14.0 °C 11.7 °C 1015.5 hPa East 2.6 km/h 8.7 km/h 86% 0.0 mm 0 W/m2
23:04 14.0 °C 11.7 °C 1015.5 hPa East 1.1 km/h 6.1 km/h 86% 0.0 mm 0 W/m2
23:14 13.8 °C 11.7 °C 1015.5 hPa SE 1.1 km/h 5.0 km/h 87% 0.0 mm 0 W/m2
23:19 13.8 °C 11.7 °C 1015.5 hPa SE 1.1 km/h 6.1 km/h 87% 0.0 mm 0 W/m2
23:24 14.0 °C 11.7 °C 1015.5 hPa ESE 5.0 km/h 8.7 km/h 86% 0.0 mm 0 W/m2
23:29 14.2 °C 11.9 °C 1015.5 hPa East 5.0 km/h 8.7 km/h 86% 0.0 mm 0 W/m2
23:34 14.3 °C 11.8 °C 1015.1 hPa Calm   9.7 km/h 85% 0.0 mm 0 W/m2
23:39 14.3 °C 11.8 °C 1015.1 hPa East 5.0 km/h 11.1 km/h 85% 0.0 mm 0 W/m2
23:44 14.2 °C 11.7 °C 1015.5 hPa East 5.0 km/h 11.1 km/h 85% 0.0 mm 0 W/m2
23:49 14.2 °C 11.7 °C 1015.1 hPa East 5.0 km/h 8.7 km/h 85% 0.0 mm 0 W/m2
23:54 14.3 °C 11.8 °C 1015.1 hPa ESE 5.0 km/h 9.7 km/h 85% 0.0 mm 0 W/m2
Northern Hawkes Bay. New Zealand Historic Data
Compliments of Weather Underground - 2 mb